createdAt,value
2023-03-15T00:00:23.067Z,97181.17
2023-03-15T00:03:10.334Z,97181.54
2023-03-15T00:05:37.245Z,97172.55
2023-03-15T00:08:04.687Z,97177.70
2023-03-15T00:10:31.560Z,97173.85
2023-03-15T00:12:58.337Z,97174.14
2023-03-15T00:15:25.171Z,97173.83
2023-03-15T00:17:52.017Z,97177.12
2023-03-15T00:20:19.482Z,97179.23
2023-03-15T00:22:46.342Z,97182.34
2023-03-15T00:25:13.155Z,97186.61
2023-03-15T00:27:40.025Z,97193.04
2023-03-15T00:30:07.144Z,97191.00
2023-03-15T00:32:33.931Z,97190.02
2023-03-15T00:35:02.822Z,97193.29
2023-03-15T00:37:30.896Z,97194.61
2023-03-15T00:39:57.818Z,97191.42
2023-03-15T00:42:27.009Z,97193.02
2023-03-15T00:44:56.742Z,97186.83
2023-03-15T00:47:23.766Z,97185.59
2023-03-15T00:49:50.537Z,97181.89
2023-03-15T00:52:17.673Z,97183.21
2023-03-15T00:54:55.111Z,97177.15
2023-03-15T00:57:22.468Z,97171.48
2023-03-15T00:59:49.625Z,97162.17
2023-03-15T01:02:17.499Z,97157.45
2023-03-15T01:04:45.345Z,97154.27
2023-03-15T01:07:12.181Z,97155.11
2023-03-15T01:09:39.165Z,97147.95
2023-03-15T01:12:06.115Z,97149.63
2023-03-15T01:14:35.331Z,97151.28
2023-03-15T01:17:02.267Z,97150.54
2023-03-15T01:19:29.096Z,97144.59
2023-03-15T01:21:56.080Z,97140.41
2023-03-15T01:24:22.971Z,97140.20
2023-03-15T01:26:50.344Z,97135.33
2023-03-15T01:29:17.446Z,97134.28
2023-03-15T01:31:44.446Z,97139.80
2023-03-15T01:34:11.363Z,97145.11
2023-03-15T01:36:38.389Z,97143.88
2023-03-15T01:39:05.438Z,97136.48
2023-03-15T01:41:41.216Z,97132.23
2023-03-15T01:44:15.188Z,97132.80
2023-03-15T01:46:42.675Z,97133.14
2023-03-15T01:49:25.245Z,97134.30
2023-03-15T01:51:58.097Z,97131.20
2023-03-15T01:54:33.516Z,97128.63
2023-03-15T01:57:04.555Z,97129.11
2023-03-15T01:59:33.066Z,97131.96
2023-03-15T02:02:00.410Z,97139.10
2023-03-15T02:04:33.997Z,97142.42
2023-03-15T02:07:02.889Z,97141.23
2023-03-15T02:09:37.449Z,97142.02
2023-03-15T02:12:04.599Z,97144.63
2023-03-15T02:14:31.988Z,97145.04
2023-03-15T02:16:59.401Z,97148.48
2023-03-15T02:19:33.510Z,97148.25
2023-03-15T02:22:06.399Z,97144.39
2023-03-15T02:24:54.435Z,97150.64
2023-03-15T02:27:34.552Z,97154.32
2023-03-15T02:30:03.456Z,97159.11
2023-03-15T02:32:30.506Z,97159.14
2023-03-15T02:34:57.547Z,97156.20
2023-03-15T02:37:24.461Z,97150.63
2023-03-15T02:39:53.120Z,97153.03
2023-03-15T02:42:20.178Z,97156.61
2023-03-15T02:44:48.164Z,97168.27
2023-03-15T02:47:18.437Z,97165.35
2023-03-15T02:49:48.726Z,97160.66
2023-03-15T02:52:16.064Z,97148.36
2023-03-15T02:54:43.191Z,97146.55
2023-03-15T02:57:11.215Z,97147.05
2023-03-15T02:59:38.785Z,97153.52
2023-03-15T03:02:05.672Z,97155.20
2023-03-15T03:04:32.553Z,97151.64
2023-03-15T03:06:59.633Z,97144.82
2023-03-15T03:09:32.536Z,97139.83
2023-03-15T03:11:59.426Z,97143.38
2023-03-15T03:14:27.010Z,97149.27
2023-03-15T03:16:54.029Z,97149.54
2023-03-15T03:19:25.107Z,97152.58
2023-03-15T03:21:56.353Z,97156.44
2023-03-15T03:24:25.292Z,97155.20
2023-03-15T03:26:57.319Z,97158.63
2023-03-15T03:29:25.714Z,97160.99
2023-03-15T03:31:53.263Z,97154.73
2023-03-15T03:34:20.858Z,97158.70
2023-03-15T03:36:50.685Z,97155.52
2023-03-15T03:39:23.015Z,97156.45
2023-03-15T03:41:50.073Z,97156.65
2023-03-15T03:44:17.443Z,97154.11
2023-03-15T03:46:44.746Z,97147.40
2023-03-15T03:49:14.196Z,97144.77
2023-03-15T03:51:40.968Z,97145.29
2023-03-15T03:54:07.718Z,97145.42
2023-03-15T03:56:35.045Z,97147.44
2023-03-15T03:59:02.006Z,97145.23
2023-03-15T04:01:39.129Z,97138.20
2023-03-15T04:04:06.132Z,97134.86
2023-03-15T04:06:33.354Z,97131.29
2023-03-15T04:09:02.208Z,97133.10
2023-03-15T04:11:35.693Z,97130.30
2023-03-15T04:14:05.606Z,97126.95
2023-03-15T04:16:33.271Z,97125.42
2023-03-15T04:19:03.807Z,97126.48
2023-03-15T04:21:32.801Z,97126.31
2023-03-15T04:24:14.177Z,97128.48
2023-03-15T04:27:05.790Z,97129.59
2023-03-15T04:29:52.971Z,97130.27
2023-03-15T04:32:39.360Z,97127.52
2023-03-15T04:35:15.472Z,97125.33
2023-03-15T04:37:52.653Z,97119.52
2023-03-15T04:40:42.318Z,97114.91
2023-03-15T04:43:25.145Z,97116.05
2023-03-15T04:46:07.841Z,97115.70
2023-03-15T04:48:53.469Z,97114.48
2023-03-15T04:51:38.997Z,97118.83
2023-03-15T04:54:27.399Z,97119.03
2023-03-15T04:56:54.284Z,97122.76
2023-03-15T04:59:40.572Z,97121.20
2023-03-15T05:02:41.004Z,97124.28
2023-03-15T05:05:22.973Z,97131.30
2023-03-15T05:07:58.573Z,97134.15
2023-03-15T05:10:44.722Z,97131.95
2023-03-15T05:13:30.240Z,97132.16
2023-03-15T05:16:10.372Z,97130.95
2023-03-15T05:19:15.977Z,97134.42
2023-03-15T05:22:03.831Z,97138.77
2023-03-15T05:24:41.936Z,97137.89
2023-03-15T05:27:21.162Z,97134.95
2023-03-15T05:30:17.028Z,97139.86
2023-03-15T05:33:04.664Z,97147.71
2023-03-15T05:35:31.565Z,97151.94
2023-03-15T05:38:15.990Z,97154.09
2023-03-15T05:41:01.457Z,97154.77
2023-03-15T05:43:51.464Z,97151.48
2023-03-15T05:46:38.637Z,97155.83
2023-03-15T05:49:31.884Z,97156.07
2023-03-15T05:52:22.132Z,97153.94
2023-03-15T05:54:59.583Z,97146.94
2023-03-15T05:57:49.606Z,97150.56
2023-03-15T06:00:39.388Z,97150.27
2023-03-15T06:03:10.613Z,97152.98
2023-03-15T06:05:46.577Z,97149.79
2023-03-15T06:08:16.035Z,97145.54
2023-03-15T06:10:45.110Z,97144.15
2023-03-15T06:13:12.125Z,97140.52
2023-03-15T06:15:39.937Z,97138.23
2023-03-15T06:18:07.773Z,97140.86
2023-03-15T06:20:34.856Z,97147.19
2023-03-15T06:23:06.601Z,97145.20
2023-03-15T06:25:41.650Z,97151.46
2023-03-15T06:28:08.582Z,97157.91
2023-03-15T06:30:36.498Z,97155.47
2023-03-15T06:33:03.451Z,97157.72
2023-03-15T06:35:30.582Z,97160.90
2023-03-15T06:37:57.881Z,97162.54
2023-03-15T06:40:25.151Z,97163.77
2023-03-15T06:42:54.047Z,97164.93
2023-03-15T06:45:21.462Z,97164.98
2023-03-15T06:47:48.632Z,97167.27
2023-03-15T06:50:18.820Z,97169.98
2023-03-15T06:52:48.861Z,97167.45
2023-03-15T06:55:19.383Z,97172.98
2023-03-15T06:57:47.270Z,97174.18
2023-03-15T07:00:14.831Z,97173.41
2023-03-15T07:02:43.584Z,97176.78
2023-03-15T07:05:13.438Z,97177.58
2023-03-15T07:07:40.507Z,97178.98
2023-03-15T07:10:10.049Z,97179.31
2023-03-15T07:12:37.054Z,97180.62
2023-03-15T07:15:04.030Z,97176.55
2023-03-15T07:17:30.860Z,97176.40
2023-03-15T07:19:57.638Z,97170.33
2023-03-15T07:22:24.438Z,97164.52
2023-03-15T07:24:51.319Z,97163.69
2023-03-15T07:27:19.445Z,97161.48
2023-03-15T07:29:46.602Z,97160.41
2023-03-15T07:32:13.603Z,97163.23
2023-03-15T07:34:40.551Z,97167.11
2023-03-15T07:37:07.436Z,97168.15
2023-03-15T07:39:34.256Z,97170.41
2023-03-15T07:42:01.099Z,97166.05
2023-03-15T07:44:32.438Z,97170.70
2023-03-15T07:46:59.418Z,97165.30
2023-03-15T07:49:26.273Z,97168.93
2023-03-15T07:51:53.211Z,97170.45
2023-03-15T07:54:20.477Z,97172.61
2023-03-15T07:56:47.388Z,97173.56
2023-03-15T07:59:15.158Z,97180.61
2023-03-15T08:01:42.106Z,97181.61
2023-03-15T08:04:09.155Z,97188.48
2023-03-15T08:06:36.076Z,97198.86
2023-03-15T08:09:05.207Z,97195.90
2023-03-15T08:11:32.897Z,97193.86
2023-03-15T08:14:00.280Z,97190.29
2023-03-15T08:16:27.245Z,97189.64
2023-03-15T08:18:54.271Z,97189.09
2023-03-15T08:21:21.644Z,97192.18
2023-03-15T08:23:48.567Z,97196.38
2023-03-15T08:26:15.335Z,97196.34
2023-03-15T08:28:42.076Z,97199.77
2023-03-15T08:31:09.199Z,97210.06
2023-03-15T08:33:36.052Z,97217.64
2023-03-15T08:36:03.136Z,97214.11
2023-03-15T08:38:30.403Z,97214.02
2023-03-15T08:40:57.342Z,97214.08
2023-03-15T08:43:24.480Z,97214.33
2023-03-15T08:46:00.806Z,97215.95
2023-03-15T08:48:28.553Z,97209.34
2023-03-15T08:50:56.488Z,97202.20
2023-03-15T08:53:23.335Z,97192.67
2023-03-15T08:55:50.334Z,97183.20
2023-03-15T08:58:20.825Z,97173.42
2023-03-15T09:00:48.653Z,97167.94
2023-03-15T09:03:16.290Z,97160.67
2023-03-15T09:05:43.742Z,97165.48
2023-03-15T09:08:10.794Z,97167.41
2023-03-15T09:10:37.742Z,97168.85
2023-03-15T09:13:04.686Z,97175.02
2023-03-15T09:15:31.517Z,97187.38
2023-03-15T09:17:58.320Z,97199.45
2023-03-15T09:20:27.654Z,97206.64
2023-03-15T09:22:55.947Z,97216.78
2023-03-15T09:25:23.464Z,97227.17
2023-03-15T09:27:50.444Z,97228.16
2023-03-15T09:30:18.136Z,97232.88
2023-03-15T09:32:45.650Z,97236.77
2023-03-15T09:35:14.087Z,97237.56
2023-03-15T09:37:41.930Z,97241.50
2023-03-15T09:40:31.832Z,97236.33
2023-03-15T09:42:58.850Z,97234.07
2023-03-15T09:45:49.474Z,97230.23
2023-03-15T09:48:16.432Z,97229.90
2023-03-15T09:50:46.655Z,97227.05
2023-03-15T09:53:21.197Z,97226.25
2023-03-15T09:55:48.841Z,97222.54
2023-03-15T09:58:18.961Z,97226.60
2023-03-15T10:00:57.908Z,97228.27
2023-03-15T10:03:39.301Z,97227.48
2023-03-15T10:06:26.663Z,97228.55
2023-03-15T10:08:55.696Z,97228.82
2023-03-15T10:11:25.104Z,97226.38
2023-03-15T10:13:55.215Z,97220.71
2023-03-15T10:16:38.033Z,97215.71
2023-03-15T10:19:24.231Z,97215.05
2023-03-15T10:21:56.595Z,97212.20
2023-03-15T10:24:29.786Z,97209.95
2023-03-15T10:26:59.027Z,97205.64
2023-03-15T10:29:26.983Z,97203.84
2023-03-15T10:31:54.357Z,97197.41
2023-03-15T10:34:22.404Z,97194.84
2023-03-15T10:36:53.952Z,97189.54
2023-03-15T10:39:21.620Z,97186.70
2023-03-15T10:41:49.904Z,97183.39
2023-03-15T10:44:19.669Z,97179.30
2023-03-15T10:47:04.861Z,97179.87
2023-03-15T10:49:37.868Z,97183.25
2023-03-15T10:52:05.434Z,97181.00
2023-03-15T10:54:33.743Z,97184.99
2023-03-15T10:57:05.628Z,97186.16
2023-03-15T10:59:33.925Z,97188.81
2023-03-15T11:02:13.603Z,97185.77
2023-03-15T11:04:47.203Z,97187.30
2023-03-15T11:07:14.157Z,97179.01
2023-03-15T11:09:45.307Z,97177.12
2023-03-15T11:12:20.763Z,97177.66
2023-03-15T11:14:49.750Z,97177.70
2023-03-15T11:17:17.025Z,97177.83
2023-03-15T11:19:49.378Z,97178.80
2023-03-15T11:22:16.432Z,97176.88
2023-03-15T11:24:43.512Z,97174.83
2023-03-15T11:27:13.505Z,97172.73
2023-03-15T11:29:43.131Z,97167.33
2023-03-15T11:32:15.288Z,97160.06
2023-03-15T11:34:50.629Z,97155.84
2023-03-15T11:37:21.059Z,97138.89
2023-03-15T11:40:01.585Z,97128.77
2023-03-15T11:42:54.465Z,97120.08
2023-03-15T11:45:24.342Z,97122.52
2023-03-15T11:47:54.180Z,97118.55
2023-03-15T11:50:21.000Z,97114.86
2023-03-15T11:52:48.933Z,97109.55
2023-03-15T11:55:26.009Z,97114.25
2023-03-15T11:57:53.925Z,97120.02
2023-03-15T12:00:26.234Z,97120.21
2023-03-15T12:02:55.823Z,97122.73
2023-03-15T12:05:41.340Z,97129.48
2023-03-15T12:08:18.421Z,97137.67
2023-03-15T12:10:46.631Z,97143.86
2023-03-15T12:13:18.162Z,97150.11
2023-03-15T12:15:46.503Z,97153.11
2023-03-15T12:18:15.748Z,97160.09
2023-03-15T12:20:49.126Z,97175.30
2023-03-15T12:23:18.773Z,97182.38
2023-03-15T12:25:54.752Z,97182.23
2023-03-15T12:28:35.114Z,97183.84
2023-03-15T12:31:03.778Z,97192.89
2023-03-15T12:33:31.987Z,97197.02
2023-03-15T12:36:00.361Z,97200.10
2023-03-15T12:38:32.996Z,97205.44
2023-03-15T12:41:00.251Z,97224.55
2023-03-15T12:43:42.609Z,97234.23
2023-03-15T12:46:28.562Z,97231.66
2023-03-15T12:49:12.680Z,97225.60
2023-03-15T12:51:53.088Z,97225.53
2023-03-15T12:54:21.974Z,97221.53
2023-03-15T12:56:53.895Z,97218.94
2023-03-15T12:59:20.814Z,97223.98
2023-03-15T13:01:47.949Z,97235.11
2023-03-15T13:04:15.165Z,97236.29
2023-03-15T13:06:44.875Z,97230.30
2023-03-15T13:09:22.116Z,97224.52
2023-03-15T13:12:08.201Z,97231.14
2023-03-15T13:14:54.509Z,97228.34
2023-03-15T13:17:44.663Z,97221.48
2023-03-15T13:20:23.853Z,97221.69
2023-03-15T13:23:05.770Z,97217.70
2023-03-15T13:25:37.274Z,97215.90
2023-03-15T13:28:17.782Z,97215.68
2023-03-15T13:30:49.009Z,97211.70
2023-03-15T13:33:29.413Z,97213.20
2023-03-15T13:36:16.536Z,97216.98
2023-03-15T13:38:44.857Z,97214.50
2023-03-15T13:41:22.352Z,97207.63
2023-03-15T13:43:50.835Z,97204.35
2023-03-15T13:46:19.166Z,97202.25
2023-03-15T13:48:46.829Z,97202.35
2023-03-15T13:51:25.401Z,97199.37
2023-03-15T13:53:54.705Z,97196.36
2023-03-15T13:56:29.441Z,97190.42
2023-03-15T13:58:57.616Z,97183.20
2023-03-15T14:01:25.783Z,97182.32
2023-03-15T14:03:56.122Z,97179.48
2023-03-15T14:06:24.735Z,97182.86
2023-03-15T14:08:59.953Z,97185.84
2023-03-15T14:11:37.153Z,97185.48
2023-03-15T14:14:24.480Z,97190.28
2023-03-15T14:17:04.181Z,97191.13
2023-03-15T14:19:32.851Z,97193.63
2023-03-15T14:22:01.155Z,97201.96
2023-03-15T14:24:33.350Z,97203.05
2023-03-15T14:27:01.722Z,97202.11
2023-03-15T14:29:30.167Z,97200.45
2023-03-15T14:32:05.282Z,97203.52
2023-03-15T14:34:37.240Z,97206.21
2023-03-15T14:37:09.621Z,97206.20
2023-03-15T14:39:41.286Z,97204.05
2023-03-15T14:42:11.643Z,97207.51
2023-03-15T14:44:38.434Z,97205.41
2023-03-15T14:47:13.634Z,97205.89
2023-03-15T14:49:40.519Z,97204.86
2023-03-15T14:52:07.646Z,97205.02
2023-03-15T14:54:34.573Z,97211.11
2023-03-15T14:57:01.311Z,97212.77
2023-03-15T14:59:28.141Z,97214.18
2023-03-15T15:01:57.684Z,97219.42
2023-03-15T15:04:29.450Z,97226.63
2023-03-15T15:06:57.368Z,97231.08
2023-03-15T15:09:27.739Z,97235.23
2023-03-15T15:11:54.887Z,97240.61
2023-03-15T15:14:22.258Z,97243.98
2023-03-15T15:16:49.742Z,97247.18
2023-03-15T15:19:16.642Z,97254.02
2023-03-15T15:21:43.738Z,97256.08
2023-03-15T15:24:18.144Z,97258.75
2023-03-15T15:26:45.022Z,97267.48
2023-03-15T15:29:14.106Z,97268.33
2023-03-15T15:31:41.483Z,97275.15
2023-03-15T15:34:09.178Z,97278.30
2023-03-15T15:36:37.864Z,97282.31
2023-03-15T15:39:10.689Z,97285.74
2023-03-15T15:41:37.488Z,97285.77
2023-03-15T15:44:09.604Z,97286.83
2023-03-15T15:46:36.316Z,97295.64
2023-03-15T15:49:03.512Z,97293.90
2023-03-15T15:51:31.901Z,97295.44
2023-03-15T15:53:59.728Z,97298.79
2023-03-15T15:56:30.022Z,97299.92
2023-03-15T15:58:57.102Z,97300.38
2023-03-15T16:01:24.663Z,97298.79
2023-03-15T16:03:51.512Z,97298.89
2023-03-15T16:06:20.142Z,97300.86
2023-03-15T16:08:48.726Z,97305.15
2023-03-15T16:11:15.951Z,97313.92
2023-03-15T16:13:44.825Z,97318.69
2023-03-15T16:16:15.795Z,97328.64
2023-03-15T16:18:43.608Z,97332.94
2023-03-15T16:21:33.068Z,97335.46
2023-03-15T16:24:12.009Z,97333.77
2023-03-15T16:26:39.166Z,97344.09
2023-03-15T16:29:17.198Z,97346.12
2023-03-15T16:31:44.034Z,97352.11
2023-03-15T16:34:11.966Z,97362.33
2023-03-15T16:36:43.186Z,97371.17
2023-03-15T16:39:13.822Z,97376.37
2023-03-15T16:41:41.324Z,97375.99
2023-03-15T16:44:12.407Z,97372.72
2023-03-15T16:46:39.699Z,97375.01
2023-03-15T16:49:06.708Z,97378.91
2023-03-15T16:51:34.253Z,97393.16
2023-03-15T16:54:15.023Z,97401.24
2023-03-15T16:56:47.837Z,97405.17
2023-03-15T16:59:16.178Z,97407.87
2023-03-15T17:01:43.837Z,97412.15
2023-03-15T17:04:11.774Z,97413.27
2023-03-15T17:06:38.658Z,97416.66
2023-03-15T17:09:10.870Z,97425.23
2023-03-15T17:11:39.492Z,97424.89
2023-03-15T17:14:07.243Z,97428.80
2023-03-15T17:16:34.083Z,97431.60
2023-03-15T17:19:01.051Z,97430.73
2023-03-15T17:21:29.486Z,97434.29
2023-03-15T17:23:56.396Z,97434.91
2023-03-15T17:26:23.940Z,97433.48
2023-03-15T17:28:50.847Z,97434.40
2023-03-15T17:31:25.127Z,97435.37
2023-03-15T17:33:52.298Z,97435.98
2023-03-15T17:36:20.812Z,97436.21
2023-03-15T17:38:47.966Z,97437.80
2023-03-15T17:41:20.725Z,97437.38
2023-03-15T17:43:48.615Z,97436.70
2023-03-15T17:46:17.077Z,97442.88
2023-03-15T17:48:43.988Z,97452.89
2023-03-15T17:51:15.187Z,97458.19
2023-03-15T17:53:41.969Z,97459.71
2023-03-15T17:56:09.129Z,97463.32
2023-03-15T17:58:36.021Z,97471.06
2023-03-15T18:01:04.105Z,97470.82
2023-03-15T18:03:31.291Z,97476.48
2023-03-15T18:06:01.020Z,97484.39
2023-03-15T18:08:27.884Z,97493.58
2023-03-15T18:10:54.919Z,97490.25
2023-03-15T18:13:22.865Z,97494.98
2023-03-15T18:15:50.774Z,97498.35
2023-03-15T18:18:18.147Z,97499.06
2023-03-15T18:20:45.530Z,97499.26
2023-03-15T18:23:14.339Z,97502.05
2023-03-15T18:25:42.603Z,97508.08
2023-03-15T18:28:10.120Z,97512.72
2023-03-15T18:30:36.976Z,97514.35
2023-03-15T18:33:05.294Z,97519.64
2023-03-15T18:35:33.569Z,97523.04
2023-03-15T18:38:00.670Z,97519.73
2023-03-15T18:40:29.025Z,97525.03
2023-03-15T18:42:56.686Z,97532.16
2023-03-15T18:45:34.183Z,97534.48
2023-03-15T18:48:01.570Z,97537.00
2023-03-15T18:50:29.056Z,97539.14
2023-03-15T18:52:56.599Z,97544.16
2023-03-15T18:55:23.545Z,97548.23
2023-03-15T18:57:52.214Z,97552.05
2023-03-15T19:00:25.375Z,97553.25
2023-03-15T19:02:56.935Z,97552.70
2023-03-15T19:05:25.311Z,97556.13
2023-03-15T19:07:52.391Z,97558.70
2023-03-15T19:10:20.206Z,97559.74
2023-03-15T19:12:47.846Z,97563.42
2023-03-15T19:15:16.832Z,97568.20
2023-03-15T19:17:44.870Z,97572.29
2023-03-15T19:20:12.817Z,97573.66
2023-03-15T19:22:40.910Z,97574.42
2023-03-15T19:25:10.868Z,97573.15
2023-03-15T19:27:37.708Z,97572.95
2023-03-15T19:30:06.172Z,97577.23
2023-03-15T19:32:34.290Z,97578.27
2023-03-15T19:35:01.228Z,97581.93
2023-03-15T19:37:28.055Z,97584.39
2023-03-15T19:39:54.925Z,97586.61
2023-03-15T19:42:21.753Z,97590.30
2023-03-15T19:44:48.604Z,97594.16
2023-03-15T19:47:15.356Z,97595.02
2023-03-15T19:49:42.371Z,97592.27
2023-03-15T19:52:09.297Z,97595.94
2023-03-15T19:54:36.053Z,97593.38
2023-03-15T19:57:02.928Z,97599.39
2023-03-15T19:59:29.698Z,97601.30
2023-03-15T20:01:56.558Z,97603.12
2023-03-15T20:04:23.399Z,97604.49
2023-03-15T20:06:50.183Z,97609.36
2023-03-15T20:09:17.063Z,97617.20
2023-03-15T20:11:43.861Z,97613.92
2023-03-15T20:14:10.787Z,97608.11
2023-03-15T20:16:37.613Z,97615.04
2023-03-15T20:19:04.557Z,97613.89
2023-03-15T20:21:31.491Z,97617.01
2023-03-15T20:23:58.330Z,97610.01
2023-03-15T20:26:25.066Z,97614.81
2023-03-15T20:28:52.135Z,97621.92
2023-03-15T20:31:19.277Z,97621.00
2023-03-15T20:33:48.572Z,97621.04
2023-03-15T20:36:15.864Z,97627.37
2023-03-15T20:38:42.959Z,97631.83
2023-03-15T20:41:13.333Z,97632.95
2023-03-15T20:43:40.645Z,97635.94
2023-03-15T20:46:09.256Z,97639.77
2023-03-15T20:48:36.323Z,97637.13
2023-03-15T20:51:03.933Z,97632.40
2023-03-15T20:53:32.163Z,97632.92
2023-03-15T20:55:59.057Z,97638.52
2023-03-15T20:58:26.290Z,97646.67
2023-03-15T21:01:02.054Z,97647.89
2023-03-15T21:03:30.965Z,97648.88
2023-03-15T21:05:57.787Z,97651.59
2023-03-15T21:08:24.583Z,97651.88
2023-03-15T21:10:52.120Z,97659.35
2023-03-15T21:13:19.383Z,97659.88
2023-03-15T21:15:46.276Z,97659.52
2023-03-15T21:18:17.153Z,97663.77
2023-03-15T21:20:44.039Z,97669.17
2023-03-15T21:23:11.268Z,97670.15
2023-03-15T21:25:38.225Z,97672.61
2023-03-15T21:28:05.112Z,97671.78
2023-03-15T21:30:32.468Z,97673.80
2023-03-15T21:32:59.591Z,97677.38
2023-03-15T21:35:26.439Z,97672.31
2023-03-15T21:37:53.336Z,97677.16
2023-03-15T21:40:20.281Z,97677.86
2023-03-15T21:42:47.159Z,97676.48
2023-03-15T21:45:14.088Z,97679.88
2023-03-15T21:47:41.151Z,97678.72
2023-03-15T21:50:08.548Z,97678.91
2023-03-15T21:52:35.340Z,97681.64
2023-03-15T21:55:02.172Z,97681.16
2023-03-15T21:57:29.010Z,97684.55
2023-03-15T21:59:55.911Z,97682.84
2023-03-15T22:02:22.768Z,97675.38
2023-03-15T22:04:49.713Z,97680.13
2023-03-15T22:07:16.790Z,97689.65
2023-03-15T22:09:43.620Z,97688.60
2023-03-15T22:12:10.508Z,97690.21
2023-03-15T22:14:37.404Z,97693.54
2023-03-15T22:17:04.313Z,97693.27
2023-03-15T22:19:31.497Z,97686.04
2023-03-15T22:21:58.578Z,97690.33
2023-03-15T22:24:25.402Z,97696.29
2023-03-15T22:26:52.691Z,97698.80
2023-03-15T22:29:19.916Z,97697.85
2023-03-15T22:31:46.871Z,97704.98
2023-03-15T22:34:13.714Z,97700.11
2023-03-15T22:36:42.309Z,97704.29
2023-03-15T22:39:09.511Z,97702.80
2023-03-15T22:41:36.556Z,97707.72
2023-03-15T22:44:03.516Z,97707.90
2023-03-15T22:46:34.436Z,97713.61
2023-03-15T22:49:02.065Z,97714.99
2023-03-15T22:51:29.538Z,97711.82
2023-03-15T22:53:56.453Z,97717.39
2023-03-15T22:56:23.329Z,97721.56
2023-03-15T22:58:51.548Z,97729.23
2023-03-15T23:01:19.125Z,97725.58
2023-03-15T23:03:46.043Z,97728.36
2023-03-15T23:06:13.782Z,97732.34
2023-03-15T23:08:40.924Z,97730.92
2023-03-15T23:11:07.918Z,97733.15
2023-03-15T23:13:34.739Z,97733.98
2023-03-15T23:16:04.382Z,97734.84
2023-03-15T23:18:34.285Z,97733.27
2023-03-15T23:21:08.475Z,97737.05
2023-03-15T23:23:35.278Z,97735.70
2023-03-15T23:26:02.253Z,97737.08
2023-03-15T23:28:29.293Z,97740.38
2023-03-15T23:31:00.153Z,97741.81
2023-03-15T23:33:27.479Z,97746.42
2023-03-15T23:35:54.602Z,97747.39
2023-03-15T23:38:21.464Z,97745.66
2023-03-15T23:40:54.805Z,97748.83
2023-03-15T23:43:21.658Z,97757.89
2023-03-15T23:45:48.797Z,97758.16
2023-03-15T23:48:15.709Z,97760.47
2023-03-15T23:50:43.680Z,97760.67
2023-03-15T23:53:10.587Z,97765.14
2023-03-15T23:55:37.589Z,97758.34
2023-03-15T23:58:06.278Z,97762.39
